Time;durP1;ratioP1;P1;durP2;ratioP2;P2;SDS_P1;SDS_P2;PMS_P1;PMS_P2;Temp;Humidity;BMP_temperature;BMP_pressure;BME280_temperature;BME280_humidity;BME280_pressure;Samples;Min_cycle;Max_cycle;Signal;HPM_P1;HPM_P2
2021/03/13 00:00:52;;;;;;;8.75;5.20;;;22.10;68.90;;;;;;5068938;28;20044;-88
2021/03/13 00:03:19;;;;;;;9.63;4.93;;;22.10;68.90;;;;;;5062919;28;20036;-77
2021/03/13 00:05:46;;;;;;;9.95;5.05;;;22.10;68.80;;;;;;5073708;28;20022;-79
2021/03/13 00:08:14;;;;;;;6.18;5.03;;;22.10;68.90;;;;;;5069476;28;20016;-78
2021/03/13 00:10:42;;;;;;;6.90;3.70;;;22.00;68.80;;;;;;5076661;28;20024;-87
2021/03/13 00:13:10;;;;;;;9.63;3.65;;;22.00;68.80;;;;;;5085513;28;20031;-89
2021/03/13 00:15:38;;;;;;;6.57;3.05;;;22.00;68.70;;;;;;5076610;28;20024;-77
2021/03/13 00:18:06;;;;;;;3.95;2.63;;;22.00;68.70;;;;;;5072233;28;20050;-82
2021/03/13 00:20:34;;;;;;;7.55;2.97;;;22.00;68.70;;;;;;5070201;28;20533;-76
2021/03/13 00:23:00;;;;;;;5.90;2.70;;;22.00;68.80;;;;;;5071658;28;20021;-82
2021/03/13 00:25:29;;;;;;;7.00;3.03;;;22.00;68.80;;;;;;5073047;28;20119;-85
2021/03/13 00:27:56;;;;;;;7.05;2.70;;;21.90;68.70;;;;;;5074505;28;20024;-81
2021/03/13 00:30:31;;;;;;;6.18;2.67;;;21.90;68.70;;;;;;5062054;28;20017;-78
2021/03/13 00:33:13;;;;;;;7.78;2.85;;;21.90;68.70;;;;;;5071654;28;20396;-82
2021/03/13 00:35:41;;;;;;;8.50;3.13;;;21.90;68.90;;;;;;5073660;28;20051;-76
2021/03/13 00:38:08;;;;;;;5.72;3.63;;;21.90;68.90;;;;;;5074081;28;20367;-79
2021/03/13 00:40:37;;;;;;;9.15;2.97;;;21.90;69.00;;;;;;5074630;28;20462;-84
2021/03/13 00:43:05;;;;;;;4.40;2.88;;;21.90;69.00;;;;;;5080241;28;20012;-76
2021/03/13 00:45:32;;;;;;;7.03;1.98;;;21.90;69.10;;;;;;5077262;28;20013;-76
2021/03/13 00:48:00;;;;;;;5.20;2.50;;;21.90;69.10;;;;;;5069900;28;20032;-88
2021/03/13 00:50:29;;;;;;;5.10;2.47;;;21.90;69.10;;;;;;5073283;28;20482;-82
2021/03/13 00:52:56;;;;;;;7.15;2.80;;;21.80;69.10;;;;;;5073349;28;20017;-78
2021/03/13 00:55:23;;;;;;;6.70;2.63;;;21.80;69.00;;;;;;5060749;28;20032;-85
2021/03/13 00:57:50;;;;;;;11.48;3.22;;;21.80;69.00;;;;;;5073804;28;20024;-79
2021/03/13 01:00:20;;;;;;;6.90;3.08;;;21.80;69.10;;;;;;5075773;28;20013;-75
2021/03/13 01:02:47;;;;;;;5.25;2.50;;;21.80;69.10;;;;;;5070366;28;20100;-85
2021/03/13 01:05:14;;;;;;;4.90;3.08;;;21.80;69.00;;;;;;5066689;28;20016;-83
2021/03/13 01:07:42;;;;;;;4.70;2.50;;;21.70;68.90;;;;;;5072334;28;20019;-77
2021/03/13 01:10:20;;;;;;;6.15;2.95;;;21.70;68.90;;;;;;5075723;28;20025;-90
2021/03/13 01:12:48;;;;;;;5.93;2.67;;;21.70;69.50;;;;;;5069358;28;20023;-88
2021/03/13 01:15:17;;;;;;;5.78;2.20;;;21.70;68.80;;;;;;5069539;28;20151;-75
2021/03/13 01:17:44;;;;;;;4.35;2.80;;;21.70;68.90;;;;;;5067016;28;20104;-88
2021/03/13 01:20:13;;;;;;;5.70;2.85;;;21.70;68.90;;;;;;5079276;28;20017;-77
2021/03/13 01:22:41;;;;;;;4.55;2.53;;;21.70;68.90;;;;;;5072405;28;20020;-91
2021/03/13 01:25:09;;;;;;;4.80;2.90;;;21.70;68.90;;;;;;5068368;28;20430;-84
2021/03/13 01:27:36;;;;;;;4.18;2.63;;;21.70;68.80;;;;;;5064425;28;20028;-79
2021/03/13 01:30:05;;;;;;;6.18;2.97;;;21.70;68.80;;;;;;5066545;28;20004;-76
2021/03/13 01:32:31;;;;;;;5.65;2.67;;;21.60;68.70;;;;;;5071190;28;20025;-86
2021/03/13 01:34:58;;;;;;;8.40;3.35;;;21.60;68.70;;;;;;5072295;28;20036;-75
2021/03/13 01:37:24;;;;;;;5.03;2.03;;;21.60;68.80;;;;;;5072748;28;20421;-83
2021/03/13 01:39:51;;;;;;;7.32;2.92;;;21.60;68.90;;;;;;5065969;28;20412;-89
2021/03/13 01:42:18;;;;;;;4.22;1.98;;;21.60;69.00;;;;;;5060295;28;20025;-86
2021/03/13 01:44:44;;;;;;;5.90;2.08;;;21.50;69.00;;;;;;5066895;28;20051;-81
2021/03/13 01:47:22;;;;;;;3.88;1.75;;;21.50;69.10;;;;;;5072784;28;20013;-81
2021/03/13 01:49:51;;;;;;;3.25;1.98;;;21.50;69.20;;;;;;5070602;28;20541;-82
2021/03/13 01:52:19;;;;;;;2.25;1.35;;;21.50;69.30;;;;;;5074981;28;20027;-76
2021/03/13 01:54:49;;;;;;;5.88;1.75;;;21.50;69.30;;;;;;5070543;28;20486;-90
2021/03/13 01:57:17;;;;;;;3.28;1.45;;;21.50;69.40;;;;;;5064616;28;20028;-82
2021/03/13 01:59:45;;;;;;;2.10;1.20;;;21.50;69.30;;;;;;5068630;28;20024;-85
2021/03/13 02:02:14;;;;;;;2.72;1.38;;;21.50;69.40;;;;;;5073600;28;20024;-91
2021/03/13 02:04:41;;;;;;;4.53;1.73;;;21.50;69.50;;;;;;5064998;28;20065;-87
2021/03/13 02:07:24;;;;;;;1.52;1.27;;;21.50;69.60;;;;;;5064564;28;20358;-77
2021/03/13 02:10:12;;;;;;;2.63;1.20;;;21.50;69.70;;;;;;5062900;28;20074;-86
2021/03/13 02:12:47;;;;;;;3.95;1.65;;;21.50;69.70;;;;;;5066786;28;20103;-76
2021/03/13 02:15:47;;;;;;;2.97;1.58;;;21.40;69.70;;;;;;5074610;28;20028;-91
2021/03/13 02:18:45;;;;;;;2.92;1.80;;;21.50;69.70;;;;;;5072477;28;20535;-86
2021/03/13 02:21:31;;;;;;;4.43;1.95;;;21.40;69.60;;;;;;5073679;28;20044;-81
2021/03/13 02:24:13;;;;;;;4.53;2.10;;;21.40;69.70;;;;;;5072262;28;20075;-84
2021/03/13 02:26:39;;;;;;;8.80;2.00;;;21.40;69.60;;;;;;5058552;28;20131;-79
2021/03/13 02:29:35;;;;;;;2.92;1.92;;;21.40;69.70;;;;;;5068238;28;20029;-80
2021/03/13 02:32:06;;;;;;;;;;;21.40;69.70;;;;;;5074885;28;20024;-91
2021/03/13 02:34:36;;;;;;;4.30;2.15;;;21.40;69.70;;;;;;5065419;28;19965;-86
2021/03/13 02:37:09;;;;;;;4.57;2.50;;;21.40;69.80;;;;;;5070125;28;20483;-89
2021/03/13 02:39:38;;;;;;;2.55;1.52;;;21.40;69.90;;;;;;5068652;28;20028;-89
2021/03/13 02:42:06;;;;;;;3.22;1.70;;;21.40;70.00;;;;;;5066436;28;20017;-86
2021/03/13 02:44:35;;;;;;;2.53;1.90;;;21.40;70.00;;;;;;5071906;28;20052;-86
2021/03/13 02:47:05;;;;;;;3.72;1.77;;;21.40;70.00;;;;;;5070532;28;20018;-88
2021/03/13 02:49:34;;;;;;;3.08;1.63;;;21.40;70.10;;;;;;5067768;28;20108;-79
2021/03/13 02:52:01;;;;;;;2.88;1.50;;;21.30;70.20;;;;;;5069542;28;20013;-89
2021/03/13 02:54:29;;;;;;;3.50;1.50;;;21.30;70.20;;;;;;5069870;28;20029;-85
2021/03/13 02:56:56;;;;;;;2.50;1.27;;;21.30;70.30;;;;;;5071227;28;20012;-90
2021/03/13 02:59:23;;;;;;;4.20;1.55;;;21.30;70.30;;;;;;5068181;28;20025;-89
2021/03/13 03:01:55;;;;;;;4.13;1.40;;;21.30;70.40;;;;;;5068668;28;20025;-76
2021/03/13 03:04:23;;;;;;;5.70;1.58;;;21.30;70.50;;;;;;5062695;28;20021;-90
2021/03/13 03:07:29;;;;;;;3.35;1.30;;;21.30;70.60;;;;;;5062238;28;20372;-76
2021/03/13 03:10:35;;;;;;;2.97;1.40;;;21.30;70.80;;;;;;5068357;28;20541;-90
2021/03/13 03:13:41;;;;;;;4.10;1.33;;;21.30;70.60;;;;;;5066444;28;20028;-89
2021/03/13 03:16:47;;;;;;;1.23;0.75;;;21.30;70.60;;;;;;5078511;28;20387;-86
2021/03/13 03:19:53;;;;;;;5.15;1.08;;;21.30;70.80;;;;;;5061551;28;20118;-89
2021/03/13 03:22:59;;;;;;;2.72;0.90;;;21.30;70.90;;;;;;5069037;28;20031;-78
2021/03/13 03:26:05;;;;;;;3.67;1.23;;;21.30;70.90;;;;;;5065527;28;20047;-88
2021/03/13 03:28:32;;;;;;;2.20;1.00;;;21.30;71.00;;;;;;5073867;28;20028;-88
2021/03/13 03:30:59;;;;;;;1.30;0.82;;;21.30;71.10;;;;;;5068344;28;20025;-89
2021/03/13 03:33:25;;;;;;;3.67;1.20;;;21.30;71.10;;;;;;5082210;28;20031;-88
2021/03/13 03:35:52;;;;;;;3.25;1.00;;;21.30;71.10;;;;;;5071925;28;20017;-88
2021/03/13 03:38:19;;;;;;;4.88;1.00;;;21.30;71.20;;;;;;5079345;28;20012;-88
2021/03/13 03:40:47;;;;;;;2.40;0.90;;;21.30;71.30;;;;;;5072525;28;20028;-75
2021/03/13 03:43:15;;;;;;;3.95;1.17;;;21.20;71.20;;;;;;5073490;28;20013;-77
2021/03/13 03:45:45;;;;;;;3.63;1.23;;;21.20;71.30;;;;;;5072803;28;20355;-78
2021/03/13 03:48:14;;;;;;;5.20;4.10;;;21.20;71.40;;;;;;5062595;28;20025;-79
2021/03/13 03:50:44;;;;;;;7.15;6.43;;;21.20;71.50;;;;;;5064438;28;20021;-77
2021/03/13 03:53:34;;;;;;;8.95;6.10;;;21.20;71.60;;;;;;5065763;28;20485;-74
2021/03/13 03:56:03;;;;;;;6.13;4.13;;;21.20;71.60;;;;;;5071047;28;20390;-74
2021/03/13 03:58:37;;;;;;;3.55;2.90;;;21.20;71.60;;;;;;5068693;28;20028;-75
2021/03/13 04:01:05;;;;;;;4.88;2.58;;;21.20;71.60;;;;;;5069152;28;20111;-74
2021/03/13 04:03:32;;;;;;;3.10;1.90;;;21.20;71.60;;;;;;5068970;28;20021;-75
2021/03/13 04:05:59;;;;;;;3.10;1.40;;;21.20;71.60;;;;;;5076049;28;20017;-82
2021/03/13 04:08:27;;;;;;;4.50;1.25;;;21.20;71.60;;;;;;5068579;28;20040;-76
2021/03/13 04:10:55;;;;;;;5.38;1.35;;;21.20;71.60;;;;;;5073040;28;20021;-80
2021/03/13 04:13:24;;;;;;;2.15;1.05;;;21.20;71.60;;;;;;5069242;28;20394;-76
2021/03/13 04:15:51;;;;;;;3.60;1.30;;;21.20;71.60;;;;;;5068583;28;20171;-84
2021/03/13 04:18:18;;;;;;;4.70;2.22;;;21.20;71.70;;;;;;5063534;28;20024;-80
2021/03/13 04:20:50;;;;;;;3.13;1.50;;;21.10;71.50;;;;;;5072290;28;20472;-85
2021/03/13 04:23:22;;;;;;;2.42;1.40;;;21.10;71.40;;;;;;5069673;28;20043;-84
2021/03/13 04:25:51;;;;;;;3.70;1.90;;;21.10;71.30;;;;;;5063898;28;20447;-81
2021/03/13 04:28:20;;;;;;;6.50;1.83;;;21.10;71.00;;;;;;5066001;28;20036;-78
2021/03/13 04:30:51;;;;;;;4.38;1.70;;;21.10;70.90;;;;;;5064659;28;20479;-76
2021/03/13 04:33:18;;;;;;;6.72;2.35;;;21.00;70.80;;;;;;5064026;28;20084;-77
2021/03/13 04:35:50;;;;;;;11.35;6.68;;;21.00;70.70;;;;;;5069262;28;20111;-78
2021/03/13 04:38:19;;;;;;;13.55;8.90;;;21.00;70.70;;;;;;5063503;28;20515;-81
2021/03/13 04:40:48;;;;;;;6.57;5.47;;;21.00;70.70;;;;;;5069336;28;20413;-86
2021/03/13 04:43:16;;;;;;;8.70;5.00;;;21.00;70.70;;;;;;5072008;28;20027;-82
2021/03/13 04:45:44;;;;;;;7.80;3.47;;;21.00;70.70;;;;;;5069447;28;20029;-79
2021/03/13 04:48:12;;;;;;;5.00;2.58;;;21.00;70.80;;;;;;5066468;28;20405;-78
2021/03/13 04:50:40;;;;;;;5.30;2.00;;;21.00;70.80;;;;;;5071754;28;20074;-83
2021/03/13 04:53:07;;;;;;;4.00;1.90;;;21.00;70.80;;;;;;5070704;28;20009;-87
2021/03/13 04:55:33;;;;;;;5.43;1.70;;;21.00;71.00;;;;;;5069981;28;20035;-82
2021/03/13 04:58:00;;;;;;;11.23;3.50;;;20.90;70.80;;;;;;5067596;28;21607;-82
2021/03/13 05:00:26;;;;;;;5.45;2.03;;;21.00;71.00;;;;;;5064159;28;20120;-79
2021/03/13 05:02:53;;;;;;;7.22;1.70;;;20.90;71.10;;;;;;5069497;28;20024;-78
2021/03/13 05:05:20;;;;;;;5.57;1.90;;;21.00;71.30;;;;;;5061909;28;20526;-79
2021/03/13 05:08:26;;;;;;;6.10;2.88;;;21.00;71.40;;;;;;5065925;28;20418;-86
2021/03/13 05:11:33;;;;;;;10.48;3.58;;;21.00;71.90;;;;;;5069565;28;20029;-79
2021/03/13 05:14:01;;;;;;;11.38;4.53;;;21.00;71.90;;;;;;5067061;28;20024;-76
2021/03/13 05:16:28;;;;;;;6.43;3.30;;;21.00;72.30;;;;;;5069223;28;20029;-79
2021/03/13 05:18:55;;;;;;;5.60;3.15;;;21.00;72.40;;;;;;5068203;28;20406;-76
2021/03/13 05:21:23;;;;;;;8.32;3.30;;;21.10;72.60;;;;;;5065159;28;20040;-81
2021/03/13 05:23:50;;;;;;;5.63;2.47;;;21.00;72.60;;;;;;5067093;28;20033;-79
2021/03/13 05:26:34;;;;;;;9.52;2.65;;;21.10;72.80;;;;;;5073962;28;20700;-83
2021/03/13 05:29:40;;;;;;;6.88;1.90;;;21.10;72.90;;;;;;5073353;28;20032;-82
2021/03/13 05:32:46;;;;;;;6.13;2.08;;;21.10;73.00;;;;;;5071961;28;20052;-78
2021/03/13 05:35:52;;;;;;;11.15;1.90;;;21.10;73.10;;;;;;5063353;28;20675;-79
2021/03/13 05:38:19;;;;;;;5.05;1.58;;;21.20;73.30;;;;;;5067302;28;20021;-72
2021/03/13 05:40:45;;;;;;;4.70;2.13;;;21.20;73.40;;;;;;5062238;28;20093;-74
2021/03/13 05:43:12;;;;;;;6.35;1.60;;;21.20;73.30;;;;;;5064128;28;20025;-79
2021/03/13 05:45:41;;;;;;;5.55;1.95;;;21.20;73.40;;;;;;5062132;28;20135;-71
2021/03/13 05:48:09;;;;;;;5.43;1.48;;;21.20;73.50;;;;;;5064395;28;20928;-71
2021/03/13 05:50:36;;;;;;;9.38;1.90;;;21.20;73.50;;;;;;5059984;28;20113;-74
2021/03/13 05:53:04;;;;;;;5.35;2.00;;;21.20;73.60;;;;;;5069252;28;20052;-76
2021/03/13 05:55:31;;;;;;;4.68;1.52;;;21.20;73.60;;;;;;5063609;28;20119;-76
2021/03/13 05:57:59;;;;;;;6.88;3.97;;;21.20;73.60;;;;;;5063295;28;20177;-74
2021/03/13 06:00:25;;;;;;;17.60;3.70;;;21.20;73.70;;;;;;5073010;28;20020;-75
2021/03/13 06:03:31;;;;;;;7.43;3.10;;;21.30;74.30;;;;;;5065229;28;20024;-75
2021/03/13 06:06:37;;;;;;;7.53;2.80;;;21.30;74.80;;;;;;5062649;28;20036;-74
2021/03/13 06:09:24;;;;;;;3.95;1.77;;;21.30;74.80;;;;;;5071104;28;20027;-75
2021/03/13 06:11:56;;;;;;;7.40;3.00;;;21.30;74.70;;;;;;5061535;28;20522;-73
2021/03/13 06:14:25;;;;;;;4.90;1.92;;;21.30;75.50;;;;;;5064334;28;20032;-74
2021/03/13 06:17:31;;;;;;;6.90;1.90;;;21.30;74.70;;;;;;5065213;28;20020;-74
2021/03/13 06:20:01;;;;;;;;;;;21.40;74.70;;;;;;5059294;28;20032;-73
2021/03/13 06:22:43;;;;;;;5.13;2.03;;;21.40;74.80;;;;;;5066673;28;19915;-72
2021/03/13 06:25:26;;;;;;;7.30;1.90;;;21.40;74.80;;;;;;5055908;28;20102;-75
2021/03/13 06:28:44;;;;;;;5.45;2.78;;;21.40;74.90;;;;;;5065250;28;20035;-74
2021/03/13 06:31:51;;;;;;;8.18;6.65;;;21.50;75.00;;;;;;5062696;28;20036;-75
2021/03/13 06:34:35;;;;;;;9.05;5.93;;;21.50;75.00;;;;;;5057958;28;20052;-75
2021/03/13 06:37:24;;;;;;;6.60;4.57;;;21.50;75.00;;;;;;5075780;28;20331;-76
2021/03/13 06:39:53;;;;;;;6.32;3.83;;;21.60;75.10;;;;;;5062722;28;20020;-75
2021/03/13 06:42:28;;;;;;;8.10;3.30;;;21.60;75.80;;;;;;5068410;28;20183;-75
2021/03/13 06:45:03;;;;;;;4.20;3.03;;;21.60;75.20;;;;;;5065379;28;20578;-78
2021/03/13 06:47:41;;;;;;;8.80;2.70;;;21.60;75.20;;;;;;5069926;28;20028;-76
2021/03/13 06:50:16;;;;;;;2.17;1.98;;;21.70;75.30;;;;;;5060515;28;20024;-76
2021/03/13 06:53:29;;;;;;;3.80;2.53;;;21.60;75.20;;;;;;5063084;28;20486;-77
2021/03/13 06:56:13;;;;;;;3.90;1.90;;;21.70;75.40;;;;;;5068839;28;20032;-76
2021/03/13 06:58:58;;;;;;;1.60;1.35;;;21.70;75.40;;;;;;5069505;28;20021;-77
2021/03/13 07:02:25;;;;;;;2.80;1.60;;;21.70;75.50;;;;;;5074509;28;20029;-76
2021/03/13 07:05:31;;;;;;;1.75;1.15;;;21.80;75.60;;;;;;5071691;28;20035;-76
2021/03/13 07:08:23;;;;;;;2.88;1.75;;;21.90;75.70;;;;;;5068207;28;20040;-76
2021/03/13 07:10:51;;;;;;;1.35;1.17;;;21.90;75.70;;;;;;5073336;28;20031;-76
2021/03/13 07:13:55;;;;;;;1.88;1.00;;;22.00;75.90;;;;;;5070356;28;20499;-76
2021/03/13 07:16:51;;;;;;;2.55;1.20;;;22.00;76.00;;;;;;5062924;28;20125;-76
2021/03/13 07:19:17;;;;;;;1.98;0.90;;;22.10;76.10;;;;;;5062800;28;20047;-77
2021/03/13 07:22:23;;;;;;;1.70;0.90;;;22.10;76.20;;;;;;5064931;28;20017;-76
2021/03/13 07:25:29;;;;;;;2.08;0.90;;;22.10;76.20;;;;;;5071890;28;20047;-76
2021/03/13 07:28:39;;;;;;;1.90;1.00;;;22.20;76.10;;;;;;5070910;28;20052;-76
2021/03/13 07:31:45;;;;;;;1.35;0.90;;;22.20;76.00;;;;;;5063495;28;20039;-76
2021/03/13 07:34:51;;;;;;;2.70;1.10;;;22.20;75.90;;;;;;5069076;28;20032;-76
2021/03/13 07:37:57;;;;;;;2.45;0.80;;;22.30;76.10;;;;;;5066383;28;20128;-76
2021/03/13 07:40:25;;;;;;;2.03;0.90;;;22.30;76.10;;;;;;5063001;28;20494;-76
2021/03/13 07:43:34;;;;;;;5.15;1.02;;;22.30;76.10;;;;;;5066562;28;20096;-76
2021/03/13 07:46:40;;;;;;;2.15;0.75;;;22.40;76.10;;;;;;5070842;28;20082;-76
2021/03/13 07:49:06;;;;;;;1.27;0.80;;;22.40;75.90;;;;;;5072773;28;20111;-76
2021/03/13 07:52:12;;;;;;;2.33;0.90;;;22.50;76.00;;;;;;5064520;28;20017;-76
2021/03/13 07:55:18;;;;;;;2.05;0.70;;;22.50;75.50;;;;;;5069401;28;20107;-76
2021/03/13 07:58:24;;;;;;;0.70;0.70;;;22.60;74.90;;;;;;5066659;28;20028;-76
2021/03/13 08:01:31;;;;;;;0.95;0.77;;;22.60;74.00;;;;;;5064769;28;20124;-77
2021/03/13 08:04:35;;;;;;;0.77;0.40;;;22.60;73.60;;;;;;5070934;28;20501;-76
2021/03/13 08:07:38;;;;;;;0.93;0.77;;;22.60;73.10;;;;;;5066093;28;20047;-77
2021/03/13 08:10:43;;;;;;;0.93;0.47;;;22.50;72.70;;;;;;5067177;28;20581;-77
2021/03/13 08:13:12;;;;;;;1.27;0.60;;;22.50;72.50;;;;;;5070548;28;20111;-77
2021/03/13 08:15:41;;;;;;;4.30;0.90;;;22.50;72.30;;;;;;5066008;28;20166;-77
2021/03/13 08:18:42;;;;;;;1.48;0.50;;;22.40;72.20;;;;;;5066901;28;20036;-77
2021/03/13 08:21:21;;;;;;;1.48;0.55;;;22.40;72.10;;;;;;5063003;28;20092;-77
2021/03/13 08:24:30;;;;;;;4.15;0.70;;;22.40;72.00;;;;;;5063898;28;20099;-76
2021/03/13 08:27:39;;;;;;;1.60;0.57;;;22.40;72.10;;;;;;5063673;28;20074;-77
2021/03/13 08:30:57;;;;;;;5.72;1.02;;;22.50;72.20;;;;;;5063259;28;20025;-77
2021/03/13 08:33:27;;;;;;;1.55;0.93;;;22.50;72.20;;;;;;5068742;28;20229;-77
2021/03/13 08:36:39;;;;;;;1.35;0.70;;;22.60;72.20;;;;;;5070638;28;20028;-76
2021/03/13 08:39:48;;;;;;;5.13;0.90;;;22.60;72.00;;;;;;5068435;28;20020;-77
2021/03/13 08:43:13;;;;;;;4.82;1.35;;;22.70;72.60;;;;;;5067105;28;20052;-77
2021/03/13 08:46:19;;;;;;;4.32;0.98;;;22.80;72.40;;;;;;5068762;28;20438;-77
2021/03/13 08:49:27;;;;;;;2.63;0.70;;;22.90;71.60;;;;;;5065600;28;20024;-77
2021/03/13 08:52:05;;;;;;;1.67;0.55;;;22.90;71.10;;;;;;5060369;28;20486;-77
2021/03/13 08:54:38;;;;;;;2.03;0.45;;;23.00;71.00;;;;;;5070142;28;20056;-77
2021/03/13 08:57:28;;;;;;;2.75;0.50;;;23.00;70.80;;;;;;5066826;28;20028;-77
2021/03/13 08:59:54;;;;;;;1.38;0.47;;;23.10;70.70;;;;;;5067541;28;20081;-77
2021/03/13 09:03:00;;;;;;;1.33;0.70;;;23.20;70.70;;;;;;5063726;28;20029;-77
2021/03/13 09:06:06;;;;;;;5.68;0.90;;;23.20;70.40;;;;;;5062236;28;20020;-77
2021/03/13 09:09:06;;;;;;;1.27;0.70;;;23.30;70.30;;;;;;5066101;28;20075;-77
2021/03/13 09:12:18;;;;;;;1.05;0.70;;;23.40;70.00;;;;;;5067471;28;20479;-77
2021/03/13 09:15:21;;;;;;;3.33;0.57;;;23.40;69.50;;;;;;5067467;28;20060;-77
2021/03/13 09:18:27;;;;;;;1.05;0.30;;;23.50;69.40;;;;;;5059794;28;20029;-77
2021/03/13 09:21:33;;;;;;;3.42;0.75;;;23.50;69.00;;;;;;5069990;28;20090;-77
2021/03/13 09:24:48;;;;;;;1.02;0.60;;;23.60;68.70;;;;;;5069576;28;20012;-77
2021/03/13 09:27:55;;;;;;;3.55;0.70;;;23.60;68.30;;;;;;5069079;28;20040;-77
2021/03/13 09:31:02;;;;;;;2.03;1.02;;;23.70;68.00;;;;;;5062558;28;20021;-77
2021/03/13 09:34:08;;;;;;;2.28;0.73;;;23.80;67.60;;;;;;5063132;28;20023;-77
2021/03/13 09:36:36;;;;;;;3.13;0.70;;;23.90;67.50;;;;;;5063653;28;20065;-77
2021/03/13 09:39:45;;;;;;;2.17;0.35;;;23.90;67.40;;;;;;5074660;28;20035;-77
2021/03/13 09:42:15;;;;;;;1.20;0.40;;;24.00;67.20;;;;;;5064695;28;20203;-77
2021/03/13 09:44:50;;;;;;;2.33;0.50;;;24.00;67.50;;;;;;5062357;28;20021;-77
2021/03/13 09:47:56;;;;;;;2.20;0.55;;;24.00;67.00;;;;;;5062695;28;20104;-77
2021/03/13 09:50:26;;;;;;;1.73;0.60;;;24.10;66.90;;;;;;5063718;28;20111;-77
2021/03/13 09:53:32;;;;;;;0.70;0.63;;;24.10;66.80;;;;;;5065190;28;20029;-77
2021/03/13 09:55:58;;;;;;;1.55;1.45;;;24.20;66.80;;;;;;5063415;28;20120;-77
2021/03/13 09:58:25;;;;;;;4.10;0.68;;;24.20;66.60;;;;;;5058373;28;20025;-77
2021/03/13 10:00:51;;;;;;;1.83;0.60;;;24.30;66.60;;;;;;5063245;28;20027;-77
2021/03/13 10:03:57;;;;;;;0.60;0.50;;;24.30;66.50;;;;;;5065847;28;20063;-77
2021/03/13 12:35:14;;;;;;;86.95;9.25;;;25.50;61.50;;;;;;5059252;27;1991739;-65
2021/03/13 12:37:40;;;;;;;54.08;7.93;;;25.50;61.50;;;;;;5104589;28;20099;-68
2021/03/13 12:40:46;;;;;;;15.32;3.03;;;25.60;61.30;;;;;;5108882;28;20028;-68
2021/03/13 12:43:13;;;;;;;19.85;2.00;;;25.70;61.40;;;;;;5104027;28;20016;-69
2021/03/13 12:46:14;;;;;;;9.38;2.35;;;25.80;61.90;;;;;;5103253;28;20068;-67
2021/03/13 12:48:43;;;;;;;7.95;1.65;;;25.90;60.90;;;;;;5088510;28;20012;-73
2021/03/13 12:51:49;;;;;;;5.55;1.30;;;26.00;60.60;;;;;;5080934;28;20040;-71
2021/03/13 12:54:35;;;;;;;;;;;26.00;60.50;;;;;;5098900;28;20065;-69
2021/03/13 12:57:01;;;;;;;3.20;1.00;;;26.20;60.10;;;;;;5098888;28;19907;-67
2021/03/13 12:59:28;;;;;;;2.92;1.50;;;26.50;58.30;;;;;;5096454;28;20036;-70
2021/03/13 13:02:31;;;;;;;2.67;1.50;;;26.60;57.90;;;;;;5096889;28;20331;-69
2021/03/13 13:04:57;;;;;;;2.97;1.05;;;26.70;58.20;;;;;;5100697;28;20057;-72
2021/03/13 13:08:03;;;;;;;2.08;0.95;;;26.70;58.30;;;;;;5104079;28;20024;-74
2021/03/13 13:11:10;;;;;;;0.88;0.68;;;26.60;58.40;;;;;;5100968;28;20031;-71
2021/03/13 13:14:16;;;;;;;2.65;1.13;;;26.60;58.60;;;;;;5099159;28;20031;-72
2021/03/13 13:16:42;;;;;;;;;;;26.60;58.50;;;;;;5102129;28;20389;-70
2021/03/13 13:19:09;;;;;;;3.20;1.10;;;26.60;58.60;;;;;;5101087;28;19908;-70
2021/03/13 13:22:15;;;;;;;17.10;15.40;;;26.60;58.60;;;;;;5092839;28;20413;-70
2021/03/13 13:25:22;;;;;;;6.05;5.10;;;26.70;58.70;;;;;;5084858;28;20020;-67
2021/03/13 13:28:28;;;;;;;2.38;2.00;;;26.60;58.40;;;;;;5086066;28;20024;-70
2021/03/13 13:31:34;;;;;;;2.25;1.85;;;26.60;58.50;;;;;;5087439;28;20063;-68
2021/03/13 13:34:18;;;;;;;1.48;1.20;;;26.60;58.70;;;;;;5085402;28;20031;-71
2021/03/13 13:37:24;;;;;;;1.55;0.90;;;26.60;58.40;;;;;;5086955;28;20107;-70
2021/03/13 13:40:33;;;;;;;2.95;0.95;;;26.60;58.50;;;;;;5076890;28;20030;-68
2021/03/13 13:43:39;;;;;;;0.88;0.68;;;26.50;58.60;;;;;;5080520;28;20031;-69
2021/03/13 13:46:45;;;;;;;1.92;1.00;;;26.50;58.70;;;;;;5081087;28;20047;-71
2021/03/13 13:49:13;;;;;;;2.30;1.23;;;26.40;58.80;;;;;;5081748;28;20090;-72
2021/03/13 13:52:19;;;;;;;3.10;1.00;;;26.40;58.90;;;;;;5082306;28;20024;-69
2021/03/13 13:55:27;;;;;;;2.92;1.10;;;26.40;59.00;;;;;;5085246;28;20020;-68
2021/03/13 13:58:34;;;;;;;26.38;23.58;;;26.30;59.10;;;;;;5084023;28;20022;-69
2021/03/13 14:01:40;;;;;;;11.93;9.02;;;26.30;59.20;;;;;;5089034;28;20027;-71
2021/03/13 14:04:08;;;;;;;4.43;3.67;;;26.30;59.50;;;;;;5080940;28;20032;-70
2021/03/13 14:07:14;;;;;;;3.97;3.38;;;26.30;59.60;;;;;;5081890;28;20473;-70
2021/03/13 14:10:20;;;;;;;5.80;2.30;;;26.20;59.70;;;;;;5082806;28;20067;-67
2021/03/13 14:13:27;;;;;;;3.28;2.22;;;26.20;59.90;;;;;;5082105;28;20029;-69
2021/03/13 14:16:35;;;;;;;2.65;1.40;;;26.20;60.10;;;;;;5082550;28;20028;-69
2021/03/13 14:19:04;;;;;;;4.85;4.45;;;26.10;60.20;;;;;;5080792;28;20016;-67
2021/03/13 14:22:12;;;;;;;2.90;2.70;;;26.00;60.40;;;;;;5083749;28;20029;-68
2021/03/13 14:25:20;;;;;;;2.30;1.67;;;26.00;60.70;;;;;;5078009;28;20044;-71
2021/03/13 14:28:27;;;;;;;1.85;1.45;;;26.00;60.60;;;;;;5082249;28;20035;-71
2021/03/13 14:31:11;;;;;;;4.47;1.00;;;26.00;60.70;;;;;;5079593;28;20486;-68
2021/03/13 14:33:38;;;;;;;1.33;0.80;;;26.00;60.50;;;;;;5082347;28;20039;-69
2021/03/13 14:36:04;;;;;;;2.88;1.48;;;25.90;60.50;;;;;;5083167;28;20040;-72
2021/03/13 14:38:31;;;;;;;1.23;0.77;;;25.90;60.60;;;;;;5078765;28;20532;-67
2021/03/13 14:40:58;;;;;;;3.17;2.85;;;25.90;60.50;;;;;;5080676;28;20020;-68
2021/03/13 14:44:04;;;;;;;3.65;2.90;;;25.90;60.40;;;;;;5081128;28;20024;-70
2021/03/13 14:46:30;;;;;;;;;;;25.80;60.50;;;;;;5082183;28;20048;-69
2021/03/13 14:49:14;;;;;;;4.57;3.90;;;25.80;60.40;;;;;;5077250;28;20668;-68
2021/03/13 14:51:47;;;;;;;4.68;3.05;;;25.90;60.40;;;;;;5083555;28;20154;-67
2021/03/13 14:54:54;;;;;;;3.30;2.15;;;25.90;60.10;;;;;;5081674;28;20020;-70
2021/03/13 14:58:01;;;;;;;3.95;1.75;;;26.00;60.10;;;;;;5083456;28;20379;-68
2021/03/13 15:01:09;;;;;;;4.43;1.30;;;26.00;60.00;;;;;;5084386;28;20031;-67
2021/03/13 15:03:38;;;;;;;1.73;1.15;;;26.10;59.90;;;;;;5080550;28;20044;-69
2021/03/13 15:06:46;;;;;;;2.28;1.02;;;26.20;59.80;;;;;;5080406;28;20028;-70
2021/03/13 15:09:14;;;;;;;1.35;0.95;;;26.20;59.60;;;;;;5084424;28;20012;-69
2021/03/13 15:12:22;;;;;;;6.97;4.97;;;26.20;59.50;;;;;;5077606;28;20024;-71
2021/03/13 15:15:30;;;;;;;2.03;1.33;;;26.20;59.50;;;;;;5076513;28;20023;-67
2021/03/13 15:18:38;;;;;;;2.38;1.08;;;26.20;59.60;;;;;;5077040;28;20031;-68
2021/03/13 15:21:46;;;;;;;2.55;1.08;;;26.20;59.40;;;;;;5078273;28;20032;-73
2021/03/13 15:24:54;;;;;;;2.75;0.95;;;26.30;59.40;;;;;;5078395;28;20021;-67
2021/03/13 15:28:02;;;;;;;2.15;1.27;;;26.20;59.40;;;;;;5078154;28;20028;-68
2021/03/13 15:31:09;;;;;;;1.33;0.70;;;26.30;59.60;;;;;;5078099;28;20190;-69
2021/03/13 15:34:16;;;;;;;2.53;1.30;;;26.30;59.70;;;;;;5081499;28;20425;-73
2021/03/13 15:37:23;;;;;;;4.75;1.52;;;26.30;59.50;;;;;;5080159;28;20046;-72
2021/03/13 15:40:30;;;;;;;3.15;1.95;;;26.40;59.50;;;;;;5081160;28;20058;-71
2021/03/13 15:43:38;;;;;;;3.05;1.75;;;26.40;59.40;;;;;;5082924;28;20483;-69
2021/03/13 15:46:06;;;;;;;3.45;1.17;;;26.40;59.40;;;;;;5082756;28;20024;-66
2021/03/13 15:48:34;;;;;;;2.42;1.48;;;26.40;59.40;;;;;;5085707;28;20020;-70
2021/03/13 15:51:12;;;;;;;3.72;1.63;;;26.30;59.40;;;;;;5083200;28;20406;-72
2021/03/13 15:53:40;;;;;;;2.13;1.58;;;26.30;59.60;;;;;;5066584;28;20085;-67
2021/03/13 15:56:08;;;;;;;2.47;1.70;;;26.30;59.70;;;;;;5081244;28;20070;-68
2021/03/13 15:58:56;;;;;;;4.50;1.70;;;26.30;59.90;;;;;;5067017;28;20377;-71
2021/03/13 16:02:03;;;;;;;3.22;1.55;;;26.20;59.90;;;;;;5088210;28;20020;-69
2021/03/13 16:05:10;;;;;;;2.08;1.50;;;26.10;60.30;;;;;;5083653;28;20032;-69
2021/03/13 16:08:18;;;;;;;1.98;1.42;;;26.00;60.80;;;;;;5085253;28;20020;-69
2021/03/13 16:10:47;;;;;;;4.47;1.40;;;26.00;61.40;;;;;;5085372;28;20040;-69
2021/03/13 16:13:54;;;;;;;7.05;1.40;;;25.90;61.90;;;;;;5085765;28;20047;-68
2021/03/13 16:16:22;;;;;;;2.72;1.45;;;25.80;62.10;;;;;;5081426;28;20429;-69
2021/03/13 16:18:48;;;;;;;3.95;1.60;;;25.80;62.60;;;;;;5075899;28;20024;-68
2021/03/13 16:21:54;;;;;;;2.33;0.95;;;25.70;63.00;;;;;;5080649;28;20103;-64
2021/03/13 16:24:40;;;;;;;;;;;25.60;63.40;;;;;;5079410;28;20070;-67
2021/03/13 16:27:46;;;;;;;1.20;1.10;;;25.60;63.80;;;;;;5080158;28;19946;-70
2021/03/13 16:30:53;;;;;;;2.90;1.02;;;25.50;64.20;;;;;;5081311;28;20128;-69
2021/03/13 16:33:56;;;;;;;6.03;1.63;;;25.50;64.30;;;;;;5083443;28;20375;-69
2021/03/13 16:36:23;;;;;;;3.03;1.30;;;25.40;64.40;;;;;;5068100;28;20044;-68
2021/03/13 16:39:29;;;;;;;4.72;2.30;;;25.40;64.80;;;;;;5084591;28;20028;-71
2021/03/13 16:42:15;;;;;;;;;;;25.40;65.00;;;;;;5086816;28;20060;-67